createdAt,value
2022-09-15T00:00:03.722Z,61.20
2022-09-15T00:01:03.691Z,62.69
2022-09-15T00:02:03.839Z,68.55
2022-09-15T00:03:03.775Z,64.55
2022-09-15T00:04:03.657Z,65.94
2022-09-15T00:05:03.667Z,63.04
2022-09-15T00:06:03.627Z,63.59
2022-09-15T00:07:03.615Z,58.65
2022-09-15T00:08:03.615Z,66.39
2022-09-15T00:09:03.615Z,60.18
2022-09-15T00:10:03.599Z,62.38
2022-09-15T00:11:03.581Z,57.90
2022-09-15T00:12:03.601Z,59.75
2022-09-15T00:13:03.548Z,53.75
2022-09-15T00:14:03.593Z,51.43
2022-09-15T00:15:03.676Z,61.96
2022-09-15T00:16:03.508Z,47.55
2022-09-15T00:17:03.566Z,68.73
2022-09-15T00:18:03.549Z,58.63
2022-09-15T00:19:03.969Z,65.56
2022-09-15T00:20:03.468Z,62.11
2022-09-15T00:21:03.544Z,56.37
2022-09-15T00:22:03.480Z,60.83
2022-09-15T00:23:03.452Z,65.99
2022-09-15T00:24:03.428Z,62.65
2022-09-15T00:25:03.400Z,65.95
2022-09-15T00:26:03.412Z,65.12
2022-09-15T00:27:03.409Z,65.31
2022-09-15T00:28:03.389Z,63.81
2022-09-15T00:29:03.373Z,63.60
2022-09-15T00:30:03.580Z,68.03
2022-09-15T00:31:03.524Z,65.91
2022-09-15T00:32:03.401Z,54.23
2022-09-15T00:33:03.826Z,64.18
2022-09-15T00:34:03.295Z,58.13
2022-09-15T00:35:03.333Z,67.92
2022-09-15T00:36:03.308Z,64.44
2022-09-15T00:37:03.294Z,66.94
2022-09-15T00:38:03.269Z,64.64
2022-09-15T00:39:03.273Z,47.41
2022-09-15T00:40:03.332Z,57.85
2022-09-15T00:41:03.277Z,61.46
2022-09-15T00:42:03.234Z,63.09
2022-09-15T00:43:03.217Z,53.81
2022-09-15T00:44:03.198Z,59.13
2022-09-15T00:45:03.204Z,62.89
2022-09-15T00:46:03.191Z,64.64
2022-09-15T00:47:18.844Z,57.53
2022-09-15T00:48:05.130Z,62.44
2022-09-15T00:49:03.157Z,57.03
2022-09-15T00:50:03.110Z,60.66
2022-09-15T00:51:03.161Z,51.52
2022-09-15T00:52:03.120Z,62.18
2022-09-15T00:53:03.117Z,65.51
2022-09-15T00:54:03.074Z,64.25
2022-09-15T00:55:03.080Z,71.70
2022-09-15T00:56:03.067Z,58.92
2022-09-15T00:57:03.052Z,65.63
2022-09-15T00:58:03.025Z,64.49
2022-09-15T00:59:03.049Z,60.61
2022-09-15T01:00:03.055Z,69.39
2022-09-15T01:01:03.139Z,64.02
2022-09-15T01:02:03.081Z,68.17
2022-09-15T01:03:03.006Z,55.49
2022-09-15T01:04:03.026Z,63.58
2022-09-15T01:05:02.983Z,69.76
2022-09-15T01:06:02.912Z,63.91
2022-09-15T01:07:03.131Z,62.62
2022-09-15T01:08:02.907Z,68.76
2022-09-15T01:09:02.943Z,67.42
2022-09-15T01:10:02.872Z,65.33
2022-09-15T01:11:02.884Z,56.92
2022-09-15T01:12:02.954Z,59.05
2022-09-15T01:13:02.858Z,67.66
2022-09-15T01:14:02.901Z,65.04
2022-09-15T01:15:02.854Z,59.24
2022-09-15T01:16:02.909Z,57.23
2022-09-15T01:17:02.973Z,60.93
2022-09-15T01:18:02.821Z,63.87
2022-09-15T01:19:02.887Z,57.66
2022-09-15T01:20:02.852Z,60.50
2022-09-15T01:21:02.803Z,64.83
2022-09-15T01:22:02.863Z,56.19
2022-09-15T01:23:02.874Z,64.08
2022-09-15T01:24:02.732Z,63.96
2022-09-15T01:25:02.759Z,64.86
2022-09-15T01:26:02.736Z,58.37
2022-09-15T01:27:13.842Z,60.51
2022-09-15T01:28:04.725Z,66.71
2022-09-15T01:29:02.727Z,71.55
2022-09-15T01:30:02.691Z,58.24
2022-09-15T01:31:02.719Z,68.84
2022-09-15T01:32:02.753Z,69.57
2022-09-15T01:33:02.749Z,61.12
2022-09-15T01:34:02.844Z,67.56
2022-09-15T01:35:02.675Z,53.79
2022-09-15T01:36:02.625Z,60.36
2022-09-15T01:37:02.607Z,65.94
2022-09-15T01:38:02.631Z,64.28
2022-09-15T01:39:02.596Z,50.63
2022-09-15T01:40:02.660Z,63.44
2022-09-15T01:41:02.548Z,64.71
2022-09-15T01:42:02.580Z,64.18
2022-09-15T01:43:02.547Z,64.72
2022-09-15T01:44:02.579Z,54.76
2022-09-15T01:45:02.531Z,55.93
2022-09-15T01:46:02.634Z,67.47
2022-09-15T01:47:02.653Z,58.29
2022-09-15T01:48:02.597Z,48.19
2022-09-15T01:49:02.528Z,53.36
2022-09-15T01:50:02.515Z,64.63
2022-09-15T01:51:02.450Z,62.63
2022-09-15T01:52:02.457Z,60.28
2022-09-15T01:53:02.496Z,65.26
2022-09-15T01:54:02.568Z,59.88
2022-09-15T01:55:02.448Z,62.93
2022-09-15T01:56:02.458Z,67.23
2022-09-15T01:57:02.432Z,62.59
2022-09-15T01:58:02.362Z,59.45
2022-09-15T01:59:02.332Z,63.74
2022-09-15T02:00:02.453Z,61.99
2022-09-15T02:01:02.451Z,56.03
2022-09-15T02:02:02.433Z,52.98
2022-09-15T02:03:02.341Z,69.05
2022-09-15T02:04:02.341Z,64.66
2022-09-15T02:05:02.294Z,59.85
2022-09-15T02:06:02.289Z,63.77
2022-09-15T02:07:02.288Z,66.71
2022-09-15T02:08:02.276Z,62.07
2022-09-15T02:09:02.273Z,64.23
2022-09-15T02:10:02.274Z,65.13
2022-09-15T02:11:02.205Z,67.40
2022-09-15T02:12:02.241Z,56.10
2022-09-15T02:13:02.229Z,64.64
2022-09-15T02:14:02.205Z,69.69
2022-09-15T02:15:02.177Z,68.20
2022-09-15T02:16:02.229Z,70.87
2022-09-15T02:17:02.219Z,67.74
2022-09-15T02:18:02.154Z,64.20
2022-09-15T02:19:02.171Z,61.93
2022-09-15T02:20:02.133Z,68.32
2022-09-15T02:21:02.133Z,70.20
2022-09-15T02:22:02.113Z,69.02
2022-09-15T02:23:02.166Z,71.80
2022-09-15T02:24:02.106Z,51.12
2022-09-15T02:25:02.066Z,62.83
2022-09-15T02:26:02.083Z,65.45
2022-09-15T02:27:02.076Z,63.31
2022-09-15T02:28:02.066Z,54.79
2022-09-15T02:29:02.030Z,56.40
2022-09-15T02:30:01.998Z,68.54
2022-09-15T02:31:02.059Z,69.44
2022-09-15T02:32:06.832Z,64.57
2022-09-15T02:33:03.981Z,70.10
2022-09-15T02:34:02.030Z,66.19
2022-09-15T02:35:02.005Z,58.30
2022-09-15T02:36:01.999Z,63.35
2022-09-15T02:37:02.056Z,66.40
2022-09-15T02:38:02.070Z,65.49
2022-09-15T02:39:02.219Z,64.08
2022-09-15T02:40:02.005Z,68.43
2022-09-15T02:41:01.942Z,62.77
2022-09-15T02:42:01.983Z,64.81
2022-09-15T02:43:02.053Z,60.47
2022-09-15T02:44:01.937Z,67.95
2022-09-15T02:45:01.900Z,67.85
2022-09-15T02:46:01.950Z,67.00
2022-09-15T02:47:01.847Z,62.92
2022-09-15T02:48:01.907Z,70.82
2022-09-15T02:49:01.806Z,69.43
2022-09-15T02:50:01.847Z,65.18
2022-09-15T02:51:01.850Z,64.11
2022-09-15T02:52:01.864Z,68.05
2022-09-15T02:53:01.830Z,67.10
2022-09-15T02:54:01.748Z,66.50
2022-09-15T02:55:01.780Z,59.68
2022-09-15T02:56:01.884Z,65.41
2022-09-15T02:57:01.820Z,67.27
2022-09-15T02:58:01.812Z,65.08
2022-09-15T02:59:01.771Z,67.71
2022-09-15T03:00:01.813Z,62.78
2022-09-15T03:01:01.783Z,67.98
2022-09-15T03:02:01.730Z,67.46
2022-09-15T03:03:01.700Z,68.02
2022-09-15T03:04:01.766Z,67.39
2022-09-15T03:05:01.665Z,70.10
2022-09-15T03:06:01.649Z,67.71
2022-09-15T03:07:01.753Z,67.47
2022-09-15T03:08:01.690Z,69.47
2022-09-15T03:09:01.709Z,67.12
2022-09-15T03:10:02.429Z,69.57
2022-09-15T03:11:01.678Z,70.47
2022-09-15T03:12:01.697Z,72.24
2022-09-15T03:13:01.622Z,70.74
2022-09-15T03:14:01.598Z,67.66
2022-09-15T03:15:01.615Z,68.67
2022-09-15T03:16:01.535Z,67.51
2022-09-15T03:17:01.553Z,68.66
2022-09-15T03:18:01.580Z,71.61
2022-09-15T03:19:01.546Z,72.87
2022-09-15T03:20:01.624Z,70.34
2022-09-15T03:21:01.529Z,73.34
2022-09-15T03:22:01.470Z,71.73
2022-09-15T03:23:01.483Z,71.85
2022-09-15T03:24:01.533Z,71.02
2022-09-15T03:25:01.511Z,70.50
2022-09-15T03:26:01.442Z,71.94
2022-09-15T03:27:01.474Z,74.00
2022-09-15T03:28:01.530Z,72.61
2022-09-15T03:29:01.391Z,71.31
2022-09-15T03:30:01.426Z,72.95
2022-09-15T03:31:01.403Z,72.25
2022-09-15T03:32:01.389Z,71.82
2022-09-15T03:33:01.318Z,74.28
2022-09-15T03:34:01.326Z,71.27
2022-09-15T03:35:01.436Z,72.64
2022-09-15T03:36:01.310Z,74.07
2022-09-15T03:37:01.322Z,71.01
2022-09-15T03:38:01.259Z,73.90
2022-09-15T03:39:01.315Z,73.53
2022-09-15T03:40:01.374Z,73.20
2022-09-15T03:41:01.289Z,72.66
2022-09-15T03:42:01.230Z,72.58
2022-09-15T03:43:01.241Z,74.68
2022-09-15T03:44:01.194Z,72.38
2022-09-15T03:45:01.227Z,73.58
2022-09-15T03:46:01.376Z,73.74
2022-09-15T03:47:01.215Z,72.75
2022-09-15T03:48:01.157Z,74.88
2022-09-15T03:49:01.156Z,73.35
2022-09-15T03:50:02.123Z,73.86
2022-09-15T03:51:01.164Z,74.90
2022-09-15T03:52:01.124Z,72.85
2022-09-15T03:53:01.168Z,74.95
2022-09-15T03:54:01.131Z,76.76
2022-09-15T03:55:01.084Z,73.18
2022-09-15T03:56:01.196Z,73.35
2022-09-15T03:57:01.087Z,76.27
2022-09-15T03:58:01.051Z,75.64
2022-09-15T03:59:01.024Z,74.91
2022-09-15T04:00:01.168Z,72.85
2022-09-15T04:01:01.110Z,73.93
2022-09-15T04:02:01.042Z,75.71
2022-09-15T04:03:01.056Z,75.24
2022-09-15T04:04:01.016Z,77.08
2022-09-15T04:05:00.954Z,78.68
2022-09-15T04:06:00.998Z,74.65
2022-09-15T04:07:00.980Z,72.77
2022-09-15T04:08:00.937Z,72.80
2022-09-15T04:09:00.944Z,72.76
2022-09-15T04:10:00.905Z,76.94
2022-09-15T04:11:00.972Z,73.26
2022-09-15T04:12:00.972Z,73.58
2022-09-15T04:13:00.905Z,75.65
2022-09-15T04:14:00.920Z,75.31
2022-09-15T04:15:00.888Z,76.26
2022-09-15T04:16:00.955Z,76.22
2022-09-15T04:17:00.862Z,73.53
2022-09-15T04:18:00.889Z,75.73
2022-09-15T04:19:00.829Z,75.92
2022-09-15T04:20:00.816Z,76.80
2022-09-15T04:21:00.817Z,77.30
2022-09-15T04:22:00.817Z,77.77
2022-09-15T04:23:00.813Z,77.49
2022-09-15T04:24:00.770Z,77.29
2022-09-15T04:25:00.777Z,74.05
2022-09-15T04:26:00.754Z,75.03
2022-09-15T04:27:00.760Z,75.54
2022-09-15T04:28:00.758Z,74.08
2022-09-15T04:29:04.199Z,75.77
2022-09-15T04:30:00.697Z,73.49
2022-09-15T04:31:00.724Z,74.76
2022-09-15T04:32:00.717Z,76.51
2022-09-15T04:33:00.717Z,76.15
2022-09-15T04:34:00.662Z,76.84
2022-09-15T04:35:00.841Z,75.24
2022-09-15T04:36:00.669Z,75.08
2022-09-15T04:37:00.631Z,76.54
2022-09-15T04:38:00.650Z,76.53
2022-09-15T04:39:00.613Z,77.16
2022-09-15T04:40:00.648Z,76.38
2022-09-15T04:41:00.629Z,76.83
2022-09-15T04:42:00.577Z,78.76
2022-09-15T04:43:00.545Z,79.26
2022-09-15T04:44:00.549Z,75.87
2022-09-15T04:45:00.553Z,79.06
2022-09-15T04:46:00.521Z,76.00
2022-09-15T04:47:00.666Z,77.40
2022-09-15T04:48:00.506Z,76.74
2022-09-15T04:49:00.562Z,75.40
2022-09-15T04:50:00.496Z,75.60
2022-09-15T04:51:00.505Z,75.15
2022-09-15T04:52:00.478Z,74.91
2022-09-15T04:53:00.529Z,75.08
2022-09-15T04:54:00.482Z,76.18
2022-09-15T04:55:00.437Z,75.20
2022-09-15T04:56:00.442Z,76.32
2022-09-15T04:57:00.398Z,75.34
2022-09-15T04:58:00.388Z,76.09
2022-09-15T04:59:03.785Z,74.39
2022-09-15T05:00:01.472Z,75.80
2022-09-15T05:01:00.467Z,78.17
2022-09-15T05:02:00.421Z,75.47
2022-09-15T05:03:00.332Z,74.29
2022-09-15T05:04:00.329Z,74.43
2022-09-15T05:05:00.313Z,77.56
2022-09-15T05:06:00.321Z,75.52
2022-09-15T05:07:00.299Z,77.38
2022-09-15T05:08:00.297Z,76.20
2022-09-15T05:09:00.331Z,75.35
2022-09-15T05:10:00.294Z,77.12
2022-09-15T05:11:00.251Z,76.71
2022-09-15T05:12:00.283Z,75.86
2022-09-15T05:13:00.258Z,75.88
2022-09-15T05:14:00.228Z,77.36
2022-09-15T05:15:00.242Z,74.82
2022-09-15T05:16:00.284Z,76.66
2022-09-15T05:17:00.209Z,76.95
2022-09-15T05:18:00.164Z,75.84
2022-09-15T05:19:00.191Z,76.40
2022-09-15T05:20:00.178Z,76.44
2022-09-15T05:21:00.154Z,75.93
2022-09-15T05:22:00.149Z,76.47
2022-09-15T05:23:00.151Z,77.06
2022-09-15T05:24:00.129Z,76.49
2022-09-15T05:25:00.138Z,76.39
2022-09-15T05:26:00.134Z,76.84
2022-09-15T05:27:00.097Z,77.31
2022-09-15T05:28:00.075Z,75.24
2022-09-15T05:29:00.033Z,76.01
2022-09-15T05:30:23.626Z,77.72
2022-09-15T05:31:02.102Z,79.00
2022-09-15T05:32:00.115Z,76.79
2022-09-15T05:33:00.029Z,75.61
2022-09-15T05:33:59.992Z,77.04
2022-09-15T05:35:00.022Z,77.26
2022-09-15T05:35:59.992Z,76.60
2022-09-15T05:36:59.940Z,75.72
2022-09-15T05:37:59.931Z,75.83
2022-09-15T05:38:59.927Z,77.18
2022-09-15T05:39:59.973Z,77.02
2022-09-15T05:40:59.966Z,77.68
2022-09-15T05:42:00.015Z,76.70
2022-09-15T05:42:59.881Z,78.15
2022-09-15T05:43:59.901Z,75.42
2022-09-15T05:44:59.927Z,76.50
2022-09-15T05:45:59.839Z,76.46
2022-09-15T05:46:59.935Z,76.70
2022-09-15T05:47:59.871Z,77.20
2022-09-15T05:48:59.811Z,76.99
2022-09-15T05:49:59.832Z,76.49
2022-09-15T05:50:59.817Z,75.79
2022-09-15T05:51:59.932Z,76.61
2022-09-15T05:52:59.776Z,76.89
2022-09-15T05:53:59.797Z,76.72
2022-09-15T05:54:59.759Z,76.62
2022-09-15T05:55:59.829Z,77.31
2022-09-15T05:56:59.770Z,74.37
2022-09-15T05:57:59.734Z,77.20
2022-09-15T05:58:59.746Z,76.32
2022-09-15T05:59:59.718Z,75.98
2022-09-15T06:00:59.699Z,77.40
2022-09-15T06:01:59.795Z,77.72
2022-09-15T06:02:59.719Z,76.71
2022-09-15T06:03:59.667Z,75.51
2022-09-15T06:04:59.659Z,77.30
2022-09-15T06:05:59.693Z,76.58
2022-09-15T06:06:59.634Z,76.26
2022-09-15T06:07:59.623Z,76.92
2022-09-15T06:08:59.794Z,76.14
2022-09-15T06:09:59.611Z,76.54
2022-09-15T06:10:59.604Z,75.22
2022-09-15T06:11:59.577Z,75.62
2022-09-15T06:12:59.559Z,75.81
2022-09-15T06:13:59.540Z,75.83
2022-09-15T06:14:59.525Z,76.78
2022-09-15T06:15:59.596Z,75.05
2022-09-15T06:16:59.549Z,76.26
2022-09-15T06:17:59.536Z,75.93
2022-09-15T06:18:59.516Z,77.04
2022-09-15T06:19:59.484Z,75.46
2022-09-15T06:20:59.464Z,75.98
2022-09-15T06:21:59.485Z,72.34
2022-09-15T06:22:59.574Z,76.66
2022-09-15T06:23:59.462Z,75.62
2022-09-15T06:24:59.431Z,75.80
2022-09-15T06:25:59.414Z,75.63
2022-09-15T06:26:59.398Z,75.84
2022-09-15T06:27:59.471Z,76.13
2022-09-15T06:28:59.429Z,76.26
2022-09-15T06:29:59.366Z,76.76
2022-09-15T06:30:59.374Z,76.21
2022-09-15T06:31:59.406Z,76.74
2022-09-15T06:32:59.358Z,73.86
2022-09-15T06:33:59.369Z,77.00
2022-09-15T06:35:00.214Z,75.90
2022-09-15T06:35:59.305Z,76.55
2022-09-15T06:36:59.306Z,74.44
2022-09-15T06:37:59.294Z,75.62
2022-09-15T06:38:59.294Z,75.02
2022-09-15T06:39:59.359Z,75.76
2022-09-15T06:40:59.293Z,75.65
2022-09-15T06:42:02.889Z,74.76
2022-09-15T06:43:00.260Z,75.96
2022-09-15T06:43:59.223Z,72.95
2022-09-15T06:44:59.222Z,75.65
2022-09-15T06:45:59.289Z,75.41
2022-09-15T06:46:59.214Z,74.98
2022-09-15T06:48:22.847Z,76.01
2022-09-15T06:49:00.173Z,74.66
2022-09-15T06:49:59.185Z,74.00
2022-09-15T06:50:59.154Z,76.71
2022-09-15T06:51:59.137Z,72.44
2022-09-15T06:52:59.109Z,73.59
2022-09-15T06:53:59.151Z,73.56
2022-09-15T06:54:59.134Z,71.51
2022-09-15T06:55:59.078Z,72.26
2022-09-15T06:56:59.069Z,73.08
2022-09-15T06:57:59.056Z,73.65
2022-09-15T06:58:59.030Z,72.31
2022-09-15T06:59:59.041Z,73.65
2022-09-15T07:00:59.039Z,72.95
2022-09-15T07:02:04.113Z,71.25
2022-09-15T07:03:01.094Z,74.69
2022-09-15T07:03:58.996Z,74.71
2022-09-15T07:04:58.995Z,72.73
2022-09-15T07:05:59.008Z,74.04
2022-09-15T07:06:58.975Z,74.29
2022-09-15T07:07:58.951Z,74.29
2022-09-15T07:08:58.911Z,74.93
2022-09-15T07:09:58.968Z,73.94
2022-09-15T07:10:58.918Z,71.33
2022-09-15T07:11:58.878Z,72.99
2022-09-15T07:12:59.889Z,73.30
2022-09-15T07:13:58.908Z,73.31
2022-09-15T07:14:58.890Z,72.76
2022-09-15T07:15:58.922Z,73.87
2022-09-15T07:16:58.845Z,72.40
2022-09-15T07:17:58.807Z,72.72
2022-09-15T07:18:58.801Z,74.35
2022-09-15T07:19:58.797Z,74.31
2022-09-15T07:20:58.790Z,72.40
2022-09-15T07:21:58.777Z,73.25
2022-09-15T07:22:58.775Z,73.45
2022-09-15T07:24:00.704Z,74.85
2022-09-15T07:24:59.761Z,72.70
2022-09-15T07:25:58.745Z,75.11
2022-09-15T07:26:58.731Z,72.74
2022-09-15T07:27:58.710Z,74.23
2022-09-15T07:28:58.686Z,75.49
2022-09-15T07:29:58.680Z,75.79
2022-09-15T07:30:58.675Z,73.22
2022-09-15T07:31:58.725Z,74.33
2022-09-15T07:32:58.674Z,75.84
2022-09-15T07:33:58.626Z,73.63
2022-09-15T07:34:58.691Z,73.51
2022-09-15T07:35:58.633Z,74.10
2022-09-15T07:36:58.623Z,73.56
2022-09-15T07:37:58.580Z,74.10
2022-09-15T07:38:58.620Z,73.77
2022-09-15T07:39:58.626Z,74.72
2022-09-15T07:40:58.537Z,72.30
2022-09-15T07:41:58.577Z,73.04
2022-09-15T07:42:58.525Z,73.96
2022-09-15T07:43:58.518Z,75.76
2022-09-15T07:44:58.510Z,72.74
2022-09-15T07:45:58.557Z,75.07
2022-09-15T07:46:58.490Z,73.68
2022-09-15T07:47:58.476Z,72.70
2022-09-15T07:48:58.464Z,74.74
2022-09-15T07:49:58.479Z,73.03
2022-09-15T07:50:58.462Z,74.84
2022-09-15T07:51:58.442Z,74.94
2022-09-15T07:52:58.426Z,71.98
2022-09-15T07:53:58.419Z,71.09
2022-09-15T07:54:58.393Z,72.80
2022-09-15T07:55:58.367Z,72.78
2022-09-15T07:56:58.415Z,72.24
2022-09-15T07:57:58.398Z,71.59
2022-09-15T07:58:58.342Z,71.82
2022-09-15T07:59:58.351Z,72.59
2022-09-15T08:00:58.380Z,72.19
2022-09-15T08:01:58.401Z,75.04
2022-09-15T08:02:58.297Z,74.91
2022-09-15T08:03:58.306Z,72.98
2022-09-15T08:04:58.298Z,73.79
2022-09-15T08:05:58.267Z,72.39
2022-09-15T08:06:58.277Z,73.85
2022-09-15T08:07:59.790Z,73.23
2022-09-15T08:09:00.759Z,70.46
2022-09-15T08:09:58.247Z,74.15
2022-09-15T08:10:58.230Z,71.27
2022-09-15T08:11:58.231Z,71.58
2022-09-15T08:12:58.183Z,72.70
2022-09-15T08:13:58.171Z,71.29
2022-09-15T08:14:58.187Z,71.63
2022-09-15T08:15:58.199Z,72.40
2022-09-15T08:16:58.155Z,75.05
2022-09-15T08:17:58.119Z,72.35
2022-09-15T08:18:58.308Z,71.58
2022-09-15T08:19:58.109Z,72.84
2022-09-15T08:20:58.688Z,72.61
2022-09-15T08:21:58.127Z,73.47
2022-09-15T08:22:58.127Z,73.27
2022-09-15T08:23:58.059Z,72.43
2022-09-15T08:24:58.856Z,73.05
2022-09-15T08:25:58.048Z,73.81
2022-09-15T08:26:58.835Z,74.77
2022-09-15T08:27:58.031Z,72.79
2022-09-15T08:28:58.008Z,73.76
2022-09-15T08:29:58.012Z,73.65
2022-09-15T08:30:58.017Z,73.92
2022-09-15T08:31:57.948Z,71.70
2022-09-15T08:32:57.939Z,74.35
2022-09-15T08:33:57.994Z,74.39
2022-09-15T08:34:58.008Z,74.70
2022-09-15T08:35:57.909Z,73.95
2022-09-15T08:36:57.920Z,74.37
2022-09-15T08:37:57.892Z,72.96
2022-09-15T08:38:57.909Z,71.88
2022-09-15T08:39:57.911Z,72.66
2022-09-15T08:40:57.841Z,72.25
2022-09-15T08:41:57.848Z,74.30
2022-09-15T08:42:57.836Z,75.08
2022-09-15T08:43:57.840Z,75.06
2022-09-15T08:44:57.889Z,74.00
2022-09-15T08:45:57.788Z,74.56
2022-09-15T08:46:57.825Z,73.59
2022-09-15T08:47:57.785Z,74.15
2022-09-15T08:49:02.045Z,73.13
2022-09-15T08:49:59.749Z,73.79
2022-09-15T08:50:57.737Z,75.37
2022-09-15T08:51:57.848Z,72.62
2022-09-15T08:52:57.718Z,73.59
2022-09-15T08:53:57.738Z,75.68
2022-09-15T08:54:57.855Z,70.80
2022-09-15T08:55:57.681Z,73.82
2022-09-15T08:57:00.224Z,73.12
2022-09-15T08:57:59.119Z,72.28
2022-09-15T08:58:57.612Z,74.36
2022-09-15T08:59:57.621Z,74.02
2022-09-15T09:00:57.650Z,73.78
2022-09-15T09:01:57.676Z,72.17
2022-09-15T09:02:57.682Z,73.41
2022-09-15T09:03:57.565Z,71.54
2022-09-15T09:04:57.690Z,72.33
2022-09-15T09:05:57.562Z,70.36
2022-09-15T09:06:57.546Z,72.18
2022-09-15T09:07:57.538Z,72.90
2022-09-15T09:08:58.202Z,73.10
2022-09-15T09:09:57.514Z,74.03
2022-09-15T09:10:57.562Z,71.88
2022-09-15T09:11:57.495Z,70.45
2022-09-15T09:12:57.460Z,72.46
2022-09-15T09:13:57.489Z,72.76
2022-09-15T09:14:58.312Z,72.63
2022-09-15T09:15:57.556Z,72.17
2022-09-15T09:16:57.500Z,72.41
2022-09-15T09:17:57.430Z,75.41
2022-09-15T09:18:57.461Z,74.39
2022-09-15T09:19:57.395Z,73.03
2022-09-15T09:20:57.395Z,73.86
2022-09-15T09:21:57.464Z,72.48
2022-09-15T09:22:57.348Z,71.67
2022-09-15T09:23:57.365Z,73.95
2022-09-15T09:24:57.318Z,73.31
2022-09-15T09:25:57.318Z,74.37
2022-09-15T09:26:57.312Z,74.96
2022-09-15T09:27:57.279Z,72.94
2022-09-15T09:28:57.302Z,75.37
2022-09-15T09:29:57.332Z,73.57
2022-09-15T09:30:57.350Z,71.38
2022-09-15T09:31:57.228Z,73.32
2022-09-15T09:32:57.312Z,73.48
2022-09-15T09:33:57.250Z,75.42
2022-09-15T09:34:57.264Z,72.35
2022-09-15T09:35:57.201Z,73.50
2022-09-15T09:36:57.203Z,72.66
2022-09-15T09:37:57.197Z,72.77
2022-09-15T09:38:57.160Z,74.63
2022-09-15T09:39:57.168Z,72.54
2022-09-15T09:41:01.879Z,73.71
2022-09-15T09:41:59.172Z,72.64
2022-09-15T09:42:57.140Z,72.46
2022-09-15T09:43:57.095Z,72.78
2022-09-15T09:44:57.120Z,69.16
2022-09-15T09:45:57.207Z,74.87
2022-09-15T09:46:57.106Z,73.70
2022-09-15T09:48:00.894Z,73.21
2022-09-15T09:48:58.136Z,73.78
2022-09-15T09:49:57.002Z,73.20
2022-09-15T09:50:57.012Z,73.10
2022-09-15T09:51:56.988Z,73.83
2022-09-15T09:52:57.004Z,73.09
2022-09-15T09:53:56.996Z,71.06
2022-09-15T09:54:57.013Z,72.38
2022-09-15T09:55:56.969Z,72.28
2022-09-15T09:56:57.026Z,70.97
2022-09-15T09:57:57.174Z,73.03
2022-09-15T09:58:56.909Z,74.57
2022-09-15T09:59:56.914Z,71.83
2022-09-15T10:00:56.897Z,69.33
2022-09-15T10:01:57.678Z,70.34
2022-09-15T10:02:56.885Z,73.46
2022-09-15T10:03:56.869Z,73.35
2022-09-15T10:04:58.055Z,70.66
2022-09-15T10:05:56.885Z,72.00
2022-09-15T10:06:56.797Z,71.45
2022-09-15T10:07:56.813Z,72.66
2022-09-15T10:08:56.806Z,71.90
2022-09-15T10:09:56.804Z,71.22
2022-09-15T10:10:56.782Z,71.46
2022-09-15T10:11:56.817Z,73.73
2022-09-15T10:12:56.767Z,73.66
2022-09-15T10:13:56.768Z,72.59
2022-09-15T10:14:56.954Z,70.63
2022-09-15T10:15:56.665Z,71.93
2022-09-15T10:16:56.776Z,73.49
2022-09-15T10:17:56.690Z,71.63
2022-09-15T10:18:56.718Z,72.94
2022-09-15T10:19:56.666Z,72.13
2022-09-15T10:20:56.645Z,70.91
2022-09-15T10:21:57.271Z,71.81
2022-09-15T10:22:56.695Z,72.96
2022-09-15T10:23:56.658Z,74.13
2022-09-15T10:24:56.930Z,74.88
2022-09-15T10:25:59.538Z,69.54
2022-09-15T10:26:57.617Z,69.92
2022-09-15T10:27:56.587Z,70.24
2022-09-15T10:28:56.713Z,72.94
2022-09-15T10:29:56.696Z,69.68
2022-09-15T10:30:56.550Z,72.18
2022-09-15T10:31:57.319Z,72.38
2022-09-15T10:32:56.518Z,72.17
2022-09-15T10:33:56.533Z,73.80
2022-09-15T10:34:56.482Z,73.46
2022-09-15T10:35:56.585Z,71.99
2022-09-15T10:36:56.506Z,71.74
2022-09-15T10:37:56.453Z,72.38
2022-09-15T10:38:56.484Z,74.36
2022-09-15T10:39:56.532Z,74.18
2022-09-15T10:40:56.538Z,72.54
2022-09-15T10:41:56.448Z,73.05
2022-09-15T10:42:56.453Z,73.85
2022-09-15T10:43:56.388Z,71.14
2022-09-15T10:44:56.396Z,71.24
2022-09-15T10:45:56.729Z,73.14
2022-09-15T10:46:56.440Z,72.40
2022-09-15T10:47:56.368Z,73.25
2022-09-15T10:48:57.393Z,73.09
2022-09-15T10:49:56.424Z,71.89
2022-09-15T10:50:56.324Z,72.37
2022-09-15T10:51:56.356Z,72.46
2022-09-15T10:52:56.316Z,72.56
2022-09-15T10:53:57.638Z,71.11
2022-09-15T10:54:57.344Z,73.57
2022-09-15T10:55:56.265Z,73.17
2022-09-15T10:56:56.344Z,71.63
2022-09-15T10:57:56.286Z,72.36
2022-09-15T10:58:57.112Z,72.23
2022-09-15T10:59:56.411Z,73.22
2022-09-15T11:00:56.305Z,72.82
2022-09-15T11:01:56.265Z,71.86
2022-09-15T11:02:56.196Z,72.27
2022-09-15T11:03:56.155Z,73.33
2022-09-15T11:04:56.184Z,72.44
2022-09-15T11:05:56.138Z,73.85
2022-09-15T11:06:56.189Z,74.23
2022-09-15T11:07:56.189Z,71.81
2022-09-15T11:08:56.157Z,71.56
2022-09-15T11:09:56.073Z,70.76
2022-09-15T11:10:56.083Z,72.72
2022-09-15T11:11:56.090Z,74.15
2022-09-15T11:12:58.576Z,71.96
2022-09-15T11:13:56.094Z,72.34
2022-09-15T11:14:56.119Z,74.15
2022-09-15T11:15:56.147Z,71.93
2022-09-15T11:16:56.705Z,72.87
2022-09-15T11:17:56.008Z,73.33
2022-09-15T11:18:56.068Z,74.51
2022-09-15T11:19:56.013Z,73.99
2022-09-15T11:20:55.991Z,73.89
2022-09-15T11:21:56.363Z,72.32
2022-09-15T11:22:56.016Z,71.40
2022-09-15T11:23:55.964Z,73.38
2022-09-15T11:24:55.932Z,75.53
2022-09-15T11:25:55.992Z,73.22
2022-09-15T11:26:55.934Z,74.18
2022-09-15T11:27:55.985Z,75.23
2022-09-15T11:28:55.923Z,74.45
2022-09-15T11:29:55.880Z,73.50
2022-09-15T11:30:56.731Z,74.73
2022-09-15T11:31:56.070Z,74.66
2022-09-15T11:32:57.990Z,73.15
2022-09-15T11:33:55.856Z,72.15
2022-09-15T11:34:55.804Z,73.90
2022-09-15T11:35:55.808Z,72.50
2022-09-15T11:36:55.808Z,74.13
2022-09-15T11:37:56.000Z,70.92
2022-09-15T11:38:55.792Z,73.12
2022-09-15T11:39:55.876Z,75.59
2022-09-15T11:40:55.831Z,74.89
2022-09-15T11:41:55.742Z,72.67
2022-09-15T11:42:55.749Z,73.10
2022-09-15T11:43:55.716Z,73.21
2022-09-15T11:44:55.735Z,75.37
2022-09-15T11:45:55.770Z,74.53
2022-09-15T11:46:55.854Z,72.13
2022-09-15T11:47:56.871Z,71.41
2022-09-15T11:48:55.726Z,73.55
2022-09-15T11:49:55.706Z,74.24
2022-09-15T11:50:55.693Z,74.00
2022-09-15T11:51:55.652Z,71.76
2022-09-15T11:52:55.680Z,73.70
2022-09-15T11:53:55.678Z,74.16
2022-09-15T11:54:55.621Z,74.34
2022-09-15T11:55:55.749Z,73.10
2022-09-15T11:56:55.623Z,73.16
2022-09-15T11:57:55.651Z,73.37
2022-09-15T11:58:55.815Z,73.85
2022-09-15T11:59:55.554Z,73.33
2022-09-15T12:00:55.581Z,73.90
2022-09-15T12:01:55.605Z,73.47
2022-09-15T12:02:55.566Z,74.40
2022-09-15T12:03:55.566Z,73.87
2022-09-15T12:04:55.537Z,74.22
2022-09-15T12:05:56.221Z,74.87
2022-09-15T12:06:55.537Z,74.77
2022-09-15T12:07:56.393Z,75.16
2022-09-15T12:08:55.435Z,75.60
2022-09-15T12:09:55.446Z,75.12
2022-09-15T12:10:55.444Z,72.85
2022-09-15T12:11:55.395Z,75.76
2022-09-15T12:12:55.445Z,71.90
2022-09-15T12:13:55.403Z,75.35
2022-09-15T12:14:55.606Z,74.08
2022-09-15T12:15:55.409Z,74.04
2022-09-15T12:16:55.373Z,73.80
2022-09-15T12:17:55.480Z,73.09
2022-09-15T12:18:55.344Z,74.69
2022-09-15T12:19:55.362Z,74.78
2022-09-15T12:20:55.300Z,73.76
2022-09-15T12:21:55.336Z,74.37
2022-09-15T12:22:55.397Z,75.47
2022-09-15T12:23:55.405Z,73.79
2022-09-15T12:24:58.871Z,73.73
2022-09-15T12:25:57.299Z,76.80
2022-09-15T12:26:55.293Z,74.60
2022-09-15T12:27:55.250Z,76.81
2022-09-15T12:28:55.351Z,76.08
2022-09-15T12:29:55.786Z,75.42
2022-09-15T12:30:55.239Z,74.97
2022-09-15T12:31:55.203Z,76.03
2022-09-15T12:32:55.916Z,76.31
2022-09-15T12:33:55.210Z,75.00
2022-09-15T12:34:55.848Z,75.02
2022-09-15T12:35:55.176Z,76.34
2022-09-15T12:36:55.201Z,75.04
2022-09-15T12:37:55.152Z,76.14
2022-09-15T12:38:55.288Z,75.14
2022-09-15T12:39:55.267Z,76.67
2022-09-15T12:40:55.116Z,75.97
2022-09-15T12:41:55.179Z,75.68
2022-09-15T12:42:55.080Z,75.20
2022-09-15T12:43:56.077Z,75.95
2022-09-15T12:44:56.125Z,72.89
2022-09-15T12:45:55.015Z,76.67
2022-09-15T12:46:55.207Z,75.26
2022-09-15T12:47:55.018Z,75.21
2022-09-15T12:48:55.041Z,76.05
2022-09-15T12:49:55.825Z,75.21
2022-09-15T12:50:55.005Z,76.18
2022-09-15T12:51:55.608Z,72.91